createdAt,value
2023-04-09T00:01:17.486Z,95080.66
2023-04-09T00:03:43.910Z,95072.69
2023-04-09T00:06:10.360Z,95075.16
2023-04-09T00:08:36.674Z,95070.88
2023-04-09T00:11:02.999Z,95080.25
2023-04-09T00:13:38.713Z,95077.63
2023-04-09T00:16:05.799Z,95072.63
2023-04-09T00:18:32.162Z,95083.19
2023-04-09T00:20:58.480Z,95075.66
2023-04-09T00:23:24.781Z,95073.19
2023-04-09T00:25:51.089Z,95072.69
2023-04-09T00:28:17.402Z,95069.78
2023-04-09T00:30:43.758Z,95066.59
2023-04-09T00:33:10.077Z,95068.91
2023-04-09T00:35:36.479Z,95067.06
2023-04-09T00:38:02.916Z,95069.75
2023-04-09T00:40:29.255Z,95068.50
2023-04-09T00:42:55.582Z,95065.34
2023-04-09T00:45:21.909Z,95062.59
2023-04-09T00:47:48.310Z,95060.59
2023-04-09T00:50:14.674Z,95054.72
2023-04-09T00:52:41.006Z,95058.06
2023-04-09T00:55:07.324Z,95055.19
2023-04-09T00:57:33.645Z,95065.66
2023-04-09T00:59:59.948Z,95059.72
2023-04-09T01:02:26.371Z,95054.75
2023-04-09T01:04:52.798Z,95055.28
2023-04-09T01:07:19.125Z,95054.69
2023-04-09T01:09:45.444Z,95051.63
2023-04-09T01:12:11.800Z,95053.59
2023-04-09T01:14:38.173Z,95049.19
2023-04-09T01:17:04.493Z,95050.00
2023-04-09T01:19:30.830Z,95051.25
2023-04-09T01:21:57.151Z,95046.72
2023-04-09T01:24:23.473Z,95051.19
2023-04-09T01:26:49.779Z,95050.25
2023-04-09T01:29:16.154Z,95048.09
2023-04-09T01:31:42.467Z,95052.66
2023-04-09T01:34:08.804Z,95049.78
2023-04-09T01:36:35.139Z,95048.19
2023-04-09T01:39:01.472Z,95047.59
2023-04-09T01:41:27.812Z,95049.50
2023-04-09T01:43:54.143Z,95044.44
2023-04-09T01:46:20.499Z,95053.66
2023-04-09T01:48:46.852Z,95051.84
2023-04-09T01:51:13.175Z,95048.34
2023-04-09T01:53:39.565Z,95044.16
2023-04-09T01:56:05.884Z,95058.31
2023-04-09T01:58:32.198Z,95051.06
2023-04-09T02:00:58.549Z,95050.53
2023-04-09T02:03:24.936Z,95052.72
2023-04-09T02:05:51.358Z,95055.91
2023-04-09T02:08:17.695Z,95050.91
2023-04-09T02:10:44.035Z,95058.25
2023-04-09T02:13:10.361Z,95058.53
2023-04-09T02:15:36.809Z,95060.94
2023-04-09T02:18:03.241Z,95061.84
2023-04-09T02:20:29.635Z,95066.00
2023-04-09T02:22:55.952Z,95059.78
2023-04-09T02:25:22.275Z,95052.25
2023-04-09T02:27:48.627Z,95054.47
2023-04-09T02:30:14.964Z,95057.88
2023-04-09T02:32:41.334Z,95062.09
2023-04-09T02:35:07.662Z,95053.34
2023-04-09T02:37:33.987Z,95058.34
2023-04-09T02:40:00.297Z,95054.81
2023-04-09T02:42:26.605Z,95054.16
2023-04-09T02:44:52.942Z,95050.25
2023-04-09T02:47:19.333Z,95049.28
2023-04-09T02:49:45.652Z,95050.34
2023-04-09T02:52:11.974Z,95047.13
2023-04-09T02:54:38.311Z,95050.50
2023-04-09T02:57:04.621Z,95047.63
2023-04-09T02:59:30.969Z,95054.00
2023-04-09T03:01:57.409Z,95056.69
2023-04-09T03:04:23.835Z,95051.59
2023-04-09T03:06:50.277Z,95051.59
2023-04-09T03:09:16.601Z,95050.66
2023-04-09T03:11:42.947Z,95046.44
2023-04-09T03:14:09.293Z,95048.69
2023-04-09T03:16:35.631Z,95042.91
2023-04-09T03:19:01.966Z,95050.78
2023-04-09T03:21:28.297Z,95049.75
2023-04-09T03:23:54.620Z,95039.19
2023-04-09T03:26:20.949Z,95043.72
2023-04-09T03:28:47.285Z,95041.59
2023-04-09T03:31:13.642Z,95040.59
2023-04-09T03:33:40.014Z,95036.94
2023-04-09T03:36:06.367Z,95031.56
2023-04-09T03:38:32.696Z,95033.63
2023-04-09T03:40:59.016Z,95035.88
2023-04-09T03:43:25.342Z,95036.19
2023-04-09T03:45:51.674Z,95030.41
2023-04-09T03:48:18.024Z,95029.06
2023-04-09T03:50:44.343Z,95027.06
2023-04-09T03:53:10.654Z,95024.66
2023-04-09T03:55:36.973Z,95026.91
2023-04-09T03:58:03.300Z,95019.41
2023-04-09T04:00:29.628Z,95022.41
2023-04-09T04:02:56.180Z,95021.00
2023-04-09T04:05:22.727Z,95019.22
2023-04-09T04:07:49.101Z,95020.88
2023-04-09T04:10:15.490Z,95024.22
2023-04-09T04:12:41.887Z,95019.34
2023-04-09T04:15:08.220Z,95010.25
2023-04-09T04:17:34.545Z,95018.47
2023-04-09T04:20:00.877Z,95024.06
2023-04-09T04:22:27.189Z,95021.75
2023-04-09T04:24:53.502Z,95026.63
2023-04-09T04:27:19.830Z,95029.59
2023-04-09T04:29:46.164Z,95032.91
2023-04-09T04:32:12.512Z,95034.63
2023-04-09T04:34:38.844Z,95038.00
2023-04-09T04:37:05.170Z,95038.47
2023-04-09T04:39:31.513Z,95047.97
2023-04-09T04:41:57.844Z,95048.94
2023-04-09T04:44:24.162Z,95038.63
2023-04-09T04:46:50.492Z,95046.97
2023-04-09T04:49:16.808Z,95043.56
2023-04-09T04:51:43.144Z,95048.50
2023-04-09T04:54:09.480Z,95049.91
2023-04-09T04:56:35.817Z,95050.88
2023-04-09T04:59:02.216Z,95054.59
2023-04-09T05:01:28.619Z,95057.00
2023-04-09T05:03:55.027Z,95060.84
2023-04-09T05:06:21.405Z,95069.88
2023-04-09T05:08:47.729Z,95069.63
2023-04-09T05:11:14.049Z,95069.78
2023-04-09T05:13:40.376Z,95075.94
2023-04-09T05:16:06.711Z,95074.56
2023-04-09T05:18:33.031Z,95073.16
2023-04-09T05:20:59.337Z,95082.09
2023-04-09T05:23:25.662Z,95083.06
2023-04-09T05:25:51.993Z,95091.41
2023-04-09T05:28:18.310Z,95077.66
2023-04-09T05:30:44.685Z,95084.91
2023-04-09T05:33:11.018Z,95081.47
2023-04-09T05:35:37.360Z,95092.63
2023-04-09T05:38:03.682Z,95091.28
2023-04-09T05:40:30.027Z,95098.84
2023-04-09T05:42:56.347Z,95088.47
2023-04-09T05:45:22.657Z,95095.34
2023-04-09T05:47:49.044Z,95098.94
2023-04-09T05:50:15.421Z,95093.53
2023-04-09T05:52:41.754Z,95104.69
2023-04-09T05:55:08.086Z,95100.31
2023-04-09T05:57:34.458Z,95105.72
2023-04-09T06:00:00.772Z,95103.75
2023-04-09T06:02:27.209Z,95102.06
2023-04-09T06:04:53.767Z,95107.38
2023-04-09T06:07:20.195Z,95109.47
2023-04-09T06:09:46.506Z,95108.34
2023-04-09T06:12:12.832Z,95108.91
2023-04-09T06:14:39.156Z,95102.09
2023-04-09T06:17:05.470Z,95106.56
2023-04-09T06:19:31.805Z,95117.97
2023-04-09T06:21:58.122Z,95110.16
2023-04-09T06:24:24.440Z,95111.22
2023-04-09T06:26:50.758Z,95110.56
2023-04-09T06:29:17.076Z,95106.81
2023-04-09T06:31:43.480Z,95112.28
2023-04-09T06:34:09.930Z,95104.34
2023-04-09T06:36:36.244Z,95107.44
2023-04-09T06:39:02.553Z,95107.56
2023-04-09T06:41:28.863Z,95106.81
2023-04-09T06:43:55.194Z,95111.81
2023-04-09T06:46:21.571Z,95113.25
2023-04-09T06:48:47.914Z,95117.44
2023-04-09T06:51:14.229Z,95114.59
2023-04-09T06:53:40.599Z,95121.94
2023-04-09T06:56:06.959Z,95122.84
2023-04-09T06:58:33.282Z,95119.16
2023-04-09T07:00:59.616Z,95119.56
2023-04-09T07:03:26.447Z,95114.97
2023-04-09T07:05:52.889Z,95121.50
2023-04-09T07:08:19.217Z,95119.06
2023-04-09T07:10:45.542Z,95126.53
2023-04-09T07:13:11.852Z,95129.69
2023-04-09T07:15:40.016Z,95124.13
2023-04-09T07:18:08.098Z,95122.50
2023-04-09T07:20:34.457Z,95126.66
2023-04-09T07:23:00.789Z,95135.13
2023-04-09T07:25:27.154Z,95127.88
2023-04-09T07:27:53.485Z,95129.88
2023-04-09T07:30:19.822Z,95132.78
2023-04-09T07:32:46.209Z,95131.38
2023-04-09T07:35:12.606Z,95131.59
2023-04-09T07:37:38.932Z,95130.78
2023-04-09T07:40:05.294Z,95139.63
2023-04-09T07:42:31.622Z,95129.13
2023-04-09T07:44:57.938Z,95129.78
2023-04-09T07:47:24.356Z,95138.00
2023-04-09T07:49:50.761Z,95138.47
2023-04-09T07:52:17.082Z,95145.44
2023-04-09T07:54:43.421Z,95144.19
2023-04-09T07:57:09.785Z,95152.84
2023-04-09T07:59:36.121Z,95149.84
2023-04-09T08:02:02.629Z,95154.94
2023-04-09T08:04:29.186Z,95154.13
2023-04-09T08:06:55.653Z,95142.31
2023-04-09T08:09:21.994Z,95148.91
2023-04-09T08:11:48.318Z,95146.63
2023-04-09T08:14:14.632Z,95143.34
2023-04-09T08:16:40.993Z,95151.72
2023-04-09T08:19:07.302Z,95157.72
2023-04-09T08:21:33.614Z,95155.38
2023-04-09T08:23:59.929Z,95156.63
2023-04-09T08:26:26.240Z,95155.03
2023-04-09T08:28:52.747Z,95157.06
2023-04-09T08:31:19.257Z,95157.94
2023-04-09T08:33:45.649Z,95157.31
2023-04-09T08:36:12.005Z,95159.13
2023-04-09T08:38:38.369Z,95163.44
2023-04-09T08:41:04.684Z,95163.78
2023-04-09T08:43:52.542Z,95162.06
2023-04-09T08:46:17.436Z,95162.91
2023-04-09T08:48:43.965Z,95161.47
2023-04-09T08:51:10.332Z,95158.03
2023-04-09T08:53:36.674Z,95164.94
2023-04-09T08:56:03.006Z,95162.53
2023-04-09T08:58:29.325Z,95168.59
2023-04-09T09:00:55.661Z,95170.91
2023-04-09T09:03:22.069Z,95171.41
2023-04-09T09:05:48.469Z,95166.22
2023-04-09T09:08:14.796Z,95167.88
2023-04-09T09:10:41.144Z,95167.50
2023-04-09T09:13:07.468Z,95165.72
2023-04-09T09:15:33.780Z,95173.53
2023-04-09T09:18:00.143Z,95172.31
2023-04-09T09:20:26.537Z,95172.66
2023-04-09T09:22:55.240Z,95168.38
2023-04-09T09:25:21.782Z,95166.13
2023-04-09T09:27:48.106Z,95170.75
2023-04-09T09:30:14.408Z,95164.19
2023-04-09T09:32:40.804Z,95174.22
2023-04-09T09:35:07.202Z,95174.41
2023-04-09T09:37:33.542Z,95169.97
2023-04-09T09:39:59.891Z,95164.19
2023-04-09T09:42:26.224Z,95165.69
2023-04-09T09:44:52.548Z,95161.25
2023-04-09T09:47:18.876Z,95155.16
2023-04-09T09:49:45.200Z,95159.28
2023-04-09T09:52:11.543Z,95155.66
2023-04-09T09:54:37.891Z,95160.06
2023-04-09T09:57:04.241Z,95160.88
2023-04-09T09:59:30.596Z,95153.50
2023-04-09T10:01:57.019Z,95150.53
2023-04-09T10:04:23.526Z,95138.31
2023-04-09T10:06:52.112Z,95141.59
2023-04-09T10:09:19.624Z,95135.09
2023-04-09T10:11:45.949Z,95135.75
2023-04-09T10:14:12.266Z,95135.22
2023-04-09T10:16:38.680Z,95133.56
2023-04-09T10:19:04.996Z,95141.44
2023-04-09T10:21:31.344Z,95134.00
2023-04-09T10:23:57.685Z,95132.00
2023-04-09T10:26:24.002Z,95134.50
2023-04-09T10:28:50.384Z,95131.41
2023-04-09T10:31:16.851Z,95130.88
2023-04-09T10:33:43.173Z,95127.09
2023-04-09T10:36:09.526Z,95123.41
2023-04-09T10:38:35.897Z,95123.72
2023-04-09T10:41:02.236Z,95118.69
2023-04-09T10:43:28.572Z,95116.44
2023-04-09T10:45:54.891Z,95117.44
2023-04-09T10:48:21.205Z,95114.19
2023-04-09T10:50:47.513Z,95110.47
2023-04-09T10:53:13.830Z,95106.84
2023-04-09T10:55:40.164Z,95106.78
2023-04-09T10:58:07.135Z,95099.84
2023-04-09T11:00:34.314Z,95098.78
2023-04-09T11:03:00.761Z,95098.59
2023-04-09T11:05:27.214Z,95103.91
2023-04-09T11:07:53.546Z,95100.56
2023-04-09T11:10:19.877Z,95093.63
2023-04-09T11:12:46.228Z,95091.00
2023-04-09T11:15:12.552Z,95090.19
2023-04-09T11:17:38.915Z,95089.34
2023-04-09T11:20:05.237Z,95087.34
2023-04-09T11:22:31.643Z,95089.50
2023-04-09T11:24:57.965Z,95079.03
2023-04-09T11:27:24.276Z,95081.28
2023-04-09T11:29:50.725Z,95079.56
2023-04-09T11:32:17.151Z,95083.41
2023-04-09T11:34:43.528Z,95083.75
2023-04-09T11:37:09.898Z,95075.38
2023-04-09T11:39:36.249Z,95073.69
2023-04-09T11:42:02.611Z,95071.06
2023-04-09T11:44:28.992Z,95067.25
2023-04-09T11:46:55.491Z,95070.34
2023-04-09T11:49:21.855Z,95070.81
2023-04-09T11:51:48.167Z,95071.63
2023-04-09T11:54:14.481Z,95070.69
2023-04-09T11:56:40.818Z,95073.38
2023-04-09T11:59:07.251Z,95066.00
2023-04-09T12:01:33.703Z,95067.63
2023-04-09T12:04:00.261Z,95069.59
2023-04-09T12:06:26.823Z,95066.59
2023-04-09T12:08:53.326Z,95062.06
2023-04-09T12:11:19.852Z,95060.59
2023-04-09T12:13:46.183Z,95058.63
2023-04-09T12:16:12.661Z,95054.88
2023-04-09T12:18:39.059Z,95055.53
2023-04-09T12:21:05.399Z,95055.25
2023-04-09T12:23:31.712Z,95060.19
2023-04-09T12:25:58.078Z,95051.00
2023-04-09T12:28:24.393Z,95044.78
2023-04-09T12:30:50.709Z,95054.34
2023-04-09T12:33:17.045Z,95062.31
2023-04-09T12:35:43.445Z,95058.53
2023-04-09T12:38:09.811Z,95061.25
2023-04-09T12:40:36.114Z,95056.59
2023-04-09T12:43:02.465Z,95047.50
2023-04-09T12:45:28.798Z,95044.22
2023-04-09T12:47:55.199Z,95038.00
2023-04-09T12:50:21.580Z,95032.28
2023-04-09T12:52:47.932Z,95032.72
2023-04-09T12:55:14.272Z,95024.19
2023-04-09T12:57:40.588Z,95035.84
2023-04-09T13:00:06.897Z,95031.81
2023-04-09T13:02:33.344Z,95029.97
2023-04-09T13:04:59.778Z,95030.97
2023-04-09T13:07:26.110Z,95023.28
2023-04-09T13:09:52.438Z,95028.69
2023-04-09T13:12:18.753Z,95022.56
2023-04-09T13:14:45.064Z,95018.72
2023-04-09T13:17:11.427Z,95018.13
2023-04-09T13:19:37.783Z,95016.09
2023-04-09T13:22:04.105Z,95012.03
2023-04-09T13:24:30.417Z,95011.06
2023-04-09T13:26:56.734Z,95011.44
2023-04-09T13:29:23.052Z,95003.72
2023-04-09T13:31:49.356Z,95016.41
2023-04-09T13:34:15.660Z,95006.38
2023-04-09T13:36:41.981Z,95003.09
2023-04-09T13:39:08.307Z,95002.31
2023-04-09T13:41:34.653Z,95011.09
2023-04-09T13:44:00.981Z,95011.28
2023-04-09T13:46:27.341Z,95004.34
2023-04-09T13:48:53.857Z,95001.91
2023-04-09T13:51:20.281Z,95003.13
2023-04-09T13:53:46.609Z,95001.72
2023-04-09T13:56:12.920Z,94997.41
2023-04-09T13:58:39.249Z,94996.00
2023-04-09T14:01:07.980Z,94999.66
2023-04-09T14:03:34.581Z,94989.25
2023-04-09T14:06:00.973Z,94984.75
2023-04-09T14:08:27.278Z,94981.88
2023-04-09T14:10:53.597Z,94985.72
2023-04-09T14:13:19.905Z,94977.78
2023-04-09T14:15:46.260Z,94979.22
2023-04-09T14:18:12.678Z,94985.94
2023-04-09T14:20:39.015Z,94979.38
2023-04-09T14:23:05.344Z,94983.44
2023-04-09T14:25:31.645Z,94980.16
2023-04-09T14:27:57.986Z,94975.88
2023-04-09T14:30:24.312Z,94972.78
2023-04-09T14:32:50.715Z,94973.38
2023-04-09T14:35:17.101Z,94964.41
2023-04-09T14:37:43.434Z,94973.53
2023-04-09T14:40:09.742Z,94974.75
2023-04-09T14:42:36.073Z,94974.50
2023-04-09T14:45:02.389Z,94978.56
2023-04-09T14:47:28.705Z,94976.34
2023-04-09T14:49:55.017Z,94974.47
2023-04-09T14:52:21.328Z,94979.59
2023-04-09T14:54:47.629Z,94977.00
2023-04-09T14:57:13.954Z,94972.38
2023-04-09T14:59:40.293Z,94974.66
2023-04-09T15:02:06.719Z,94975.13
2023-04-09T15:04:33.359Z,94985.41
2023-04-09T15:06:59.750Z,94977.31
2023-04-09T15:09:26.069Z,94982.78
2023-04-09T15:11:52.369Z,94983.34
2023-04-09T15:14:18.677Z,94972.69
2023-04-09T15:16:45.078Z,94981.28
2023-04-09T15:19:11.435Z,94982.56
2023-04-09T15:21:37.739Z,94971.13
2023-04-09T15:24:04.055Z,94974.97
2023-04-09T15:26:30.418Z,94964.72
2023-04-09T15:28:56.756Z,94970.66
2023-04-09T15:31:23.096Z,94960.03
2023-04-09T15:33:49.439Z,94964.06
2023-04-09T15:36:15.764Z,94951.28
2023-04-09T15:38:42.095Z,94957.78
2023-04-09T15:41:08.412Z,94963.47
2023-04-09T15:43:34.713Z,94962.44
2023-04-09T15:46:01.053Z,94964.97
2023-04-09T15:48:27.370Z,94964.06
2023-04-09T15:50:53.722Z,94963.03
2023-04-09T15:53:20.044Z,94963.06
2023-04-09T15:55:46.380Z,94966.25
2023-04-09T15:58:12.685Z,94970.53
2023-04-09T16:00:39.006Z,94961.88
2023-04-09T16:03:05.330Z,94975.22
2023-04-09T16:05:31.639Z,94961.72
2023-04-09T16:07:59.837Z,94969.66
2023-04-09T16:10:26.340Z,94962.75
2023-04-09T16:12:52.676Z,94957.75
2023-04-09T16:15:19.001Z,94962.00
2023-04-09T16:17:45.339Z,94967.38
2023-04-09T16:20:11.676Z,94963.31
2023-04-09T16:22:38.012Z,94975.66
2023-04-09T16:25:04.340Z,94965.13
2023-04-09T16:27:30.670Z,94969.59
2023-04-09T16:29:56.995Z,94970.56
2023-04-09T16:32:23.336Z,94971.22
2023-04-09T16:34:49.666Z,94978.75
2023-04-09T16:37:15.974Z,94971.56
2023-04-09T16:39:42.312Z,94973.59
2023-04-09T16:42:08.661Z,94972.16
2023-04-09T16:44:35.001Z,94977.81
2023-04-09T16:47:01.314Z,94976.69
2023-04-09T16:49:27.646Z,94977.44
2023-04-09T16:51:53.963Z,94973.72
2023-04-09T16:54:20.294Z,94980.09
2023-04-09T16:56:46.665Z,94980.69
2023-04-09T16:59:12.988Z,94976.09
2023-04-09T17:01:39.363Z,94975.69
2023-04-09T17:04:05.813Z,94979.47
2023-04-09T17:06:32.159Z,94979.56
2023-04-09T17:08:58.516Z,94981.81
2023-04-09T17:11:24.833Z,94977.78
2023-04-09T17:13:51.171Z,94985.31
2023-04-09T17:16:17.491Z,94982.97
2023-04-09T17:18:43.797Z,94978.00
2023-04-09T17:21:10.113Z,94982.53
2023-04-09T17:23:36.426Z,94984.53
2023-04-09T17:26:02.748Z,94984.31
2023-04-09T17:28:29.073Z,94983.69
2023-04-09T17:30:55.469Z,94990.28
2023-04-09T17:33:21.855Z,94985.78
2023-04-09T17:35:48.179Z,94990.25
2023-04-09T17:38:14.549Z,94991.16
2023-04-09T17:40:40.871Z,94991.81
2023-04-09T17:43:07.191Z,94996.94
2023-04-09T17:45:33.498Z,94997.41
2023-04-09T17:47:59.845Z,94995.56
2023-04-09T17:50:26.232Z,94999.59
2023-04-09T17:52:52.568Z,94995.97
2023-04-09T17:55:18.879Z,94995.78
2023-04-09T17:57:45.199Z,94998.44
2023-04-09T18:00:11.523Z,95002.31
2023-04-09T18:02:37.971Z,95010.66
2023-04-09T18:05:04.680Z,95010.84
2023-04-09T18:07:31.137Z,95013.09
2023-04-09T18:09:57.437Z,95009.97
2023-04-09T18:12:23.740Z,95014.63
2023-04-09T18:14:50.055Z,95011.88
2023-04-09T18:17:16.529Z,95004.31
2023-04-09T18:19:42.893Z,95013.81
2023-04-09T18:22:09.218Z,95018.50
2023-04-09T18:24:35.536Z,95021.06
2023-04-09T18:27:02.921Z,95025.00
2023-04-09T18:29:29.230Z,95041.03
2023-04-09T18:31:55.588Z,95035.22
2023-04-09T18:34:22.422Z,95039.97
2023-04-09T18:36:48.760Z,95046.22
2023-04-09T18:39:15.086Z,95041.41
2023-04-09T18:41:41.395Z,95043.84
2023-04-09T18:44:07.696Z,95040.28
2023-04-09T18:46:34.036Z,95044.66
2023-04-09T18:49:00.380Z,95056.50
2023-04-09T18:51:26.698Z,95050.06
2023-04-09T18:53:53.126Z,95057.41
2023-04-09T18:56:19.462Z,95061.19
2023-04-09T18:58:45.770Z,95062.06
2023-04-09T19:01:12.079Z,95063.13
2023-04-09T19:03:38.626Z,95067.25
2023-04-09T19:06:05.224Z,95064.34
2023-04-09T19:08:31.529Z,95076.19
2023-04-09T19:10:57.836Z,95074.91
2023-04-09T19:13:24.166Z,95079.19
2023-04-09T19:15:50.497Z,95073.47
2023-04-09T19:18:16.839Z,95083.75
2023-04-09T19:20:43.144Z,95080.28
2023-04-09T19:23:09.462Z,95086.56
2023-04-09T19:25:35.785Z,95085.84
2023-04-09T19:28:02.114Z,95086.38
2023-04-09T19:30:28.439Z,95088.78
2023-04-09T19:32:54.806Z,95097.22
2023-04-09T19:35:21.207Z,95097.84
2023-04-09T19:37:47.564Z,95100.06
2023-04-09T19:40:13.924Z,95102.63
2023-04-09T19:42:40.233Z,95106.31
2023-04-09T19:45:06.549Z,95098.78
2023-04-09T19:47:32.904Z,95107.34
2023-04-09T19:49:59.226Z,95098.16
2023-04-09T19:52:25.543Z,95098.97
2023-04-09T19:54:51.868Z,95098.41
2023-04-09T19:57:18.381Z,95103.63
2023-04-09T19:59:44.746Z,95105.31
2023-04-09T20:02:11.216Z,95101.41
2023-04-09T20:04:37.576Z,95106.31
2023-04-09T20:07:03.901Z,95102.06
2023-04-09T20:09:30.236Z,95109.41
2023-04-09T20:11:56.549Z,95107.78
2023-04-09T20:14:22.865Z,95104.00
2023-04-09T20:16:49.345Z,95112.63
2023-04-09T20:19:15.712Z,95109.28
2023-04-09T20:21:42.013Z,95099.81
2023-04-09T20:24:08.334Z,95107.41
2023-04-09T20:26:34.628Z,95106.47
2023-04-09T20:29:00.975Z,95102.06
2023-04-09T20:31:27.321Z,95105.63
2023-04-09T20:33:53.660Z,95108.13
2023-04-09T20:36:20.019Z,95108.38
2023-04-09T20:38:46.342Z,95109.22
2023-04-09T20:41:12.657Z,95111.25
2023-04-09T20:43:38.979Z,95109.69
2023-04-09T20:46:05.340Z,95112.19
2023-04-09T20:48:31.732Z,95106.31
2023-04-09T20:50:58.072Z,95104.09
2023-04-09T20:53:24.379Z,95109.09
2023-04-09T20:55:50.701Z,95110.25
2023-04-09T20:58:17.022Z,95105.72
2023-04-09T21:00:43.335Z,95100.47
2023-04-09T21:03:09.928Z,95098.38
2023-04-09T21:05:36.375Z,95105.00
2023-04-09T21:08:02.687Z,95102.47
2023-04-09T21:10:29.029Z,95103.47
2023-04-09T21:12:55.378Z,95108.09
2023-04-09T21:15:21.677Z,95107.91
2023-04-09T21:17:48.055Z,95099.88
2023-04-09T21:20:14.400Z,95109.50
2023-04-09T21:22:40.725Z,95108.00
2023-04-09T21:25:07.065Z,95105.94
2023-04-09T21:27:33.431Z,95110.38
2023-04-09T21:29:59.758Z,95108.91
2023-04-09T21:32:26.136Z,95111.88
2023-04-09T21:34:52.486Z,95102.97
2023-04-09T21:37:18.835Z,95095.59
2023-04-09T21:39:45.154Z,95095.28
2023-04-09T21:42:11.467Z,95091.63
2023-04-09T21:44:37.791Z,95102.03
2023-04-09T21:47:04.115Z,95105.63
2023-04-09T21:49:30.423Z,95106.94
2023-04-09T21:51:56.755Z,95090.34
2023-04-09T21:54:23.076Z,95102.00
2023-04-09T21:56:49.397Z,95101.72
2023-04-09T21:59:15.745Z,95097.09
2023-04-09T22:01:42.150Z,95102.66
2023-04-09T22:04:08.590Z,95098.56
2023-04-09T22:06:35.022Z,95097.44
2023-04-09T22:09:01.677Z,95103.22
2023-04-09T22:11:28.720Z,95097.59
2023-04-09T22:13:55.144Z,95104.03
2023-04-09T22:16:21.481Z,95101.56
2023-04-09T22:18:47.861Z,95103.03
2023-04-09T22:21:14.180Z,95098.41
2023-04-09T22:23:40.490Z,95110.59
2023-04-09T22:26:06.789Z,95104.19
2023-04-09T22:28:33.091Z,95110.94
2023-04-09T22:30:59.465Z,95113.56
2023-04-09T22:33:25.774Z,95109.78
2023-04-09T22:35:52.128Z,95105.84
2023-04-09T22:38:18.456Z,95111.94
2023-04-09T22:40:44.774Z,95104.88
2023-04-09T22:43:11.094Z,95109.94
2023-04-09T22:45:37.389Z,95101.41
2023-04-09T22:48:03.767Z,95104.03
2023-04-09T22:50:30.135Z,95102.00
2023-04-09T22:52:56.463Z,95103.03
2023-04-09T22:55:22.780Z,95108.59
2023-04-09T22:57:49.080Z,95102.34
2023-04-09T23:00:15.407Z,95106.25
2023-04-09T23:02:41.814Z,95109.56
2023-04-09T23:05:08.312Z,95109.69
2023-04-09T23:07:34.711Z,95104.16
2023-04-09T23:10:01.060Z,95105.78
2023-04-09T23:12:27.386Z,95100.69
2023-04-09T23:14:53.706Z,95101.53
2023-04-09T23:17:20.026Z,95093.47
2023-04-09T23:19:46.353Z,95100.16
2023-04-09T23:22:12.669Z,95100.16
2023-04-09T23:24:38.980Z,95099.84
2023-04-09T23:27:05.321Z,95094.41
2023-04-09T23:29:31.630Z,95095.06
2023-04-09T23:31:58.067Z,95094.72
2023-04-09T23:34:24.592Z,95090.97
2023-04-09T23:36:50.936Z,95095.59
2023-04-09T23:39:17.266Z,95096.06
2023-04-09T23:41:43.563Z,95100.84
2023-04-09T23:44:09.883Z,95097.88
2023-04-09T23:46:36.247Z,95101.47
2023-04-09T23:49:02.563Z,95101.38
2023-04-09T23:51:28.869Z,95097.91
2023-04-09T23:53:55.384Z,95105.25
2023-04-09T23:56:21.896Z,95095.75
2023-04-09T23:58:48.238Z,95095.59
